createdAt,value
2018-08-30T00:02:11.193Z,100257.46
2018-08-30T00:04:40.214Z,100253.98
2018-08-30T00:07:09.261Z,100255.25
2018-08-30T00:09:38.434Z,100263.23
2018-08-30T00:12:07.521Z,100262.05
2018-08-30T00:14:36.452Z,100272.52
2018-08-30T00:17:05.531Z,100270.75
2018-08-30T00:19:34.577Z,100275.98
2018-08-30T00:22:03.530Z,100278.95
2018-08-30T00:24:32.719Z,100277.06
2018-08-30T00:27:01.763Z,100281.64
2018-08-30T00:29:30.734Z,100294.34
2018-08-30T00:31:59.771Z,100291.23
2018-08-30T00:34:28.982Z,100304.06
2018-08-30T00:36:57.972Z,100296.95
2018-08-30T00:39:26.929Z,100311.98
2018-08-30T00:41:55.901Z,100299.95
2018-08-30T00:44:25.125Z,100306.98
2018-08-30T00:46:54.462Z,100311.22
2018-08-30T00:49:23.714Z,100314.30
2018-08-30T00:51:52.866Z,100320.86
2018-08-30T00:54:22.118Z,100329.73
2018-08-30T00:56:51.485Z,100333.50
2018-08-30T00:59:20.698Z,100340.03
2018-08-30T01:01:49.957Z,100340.38
2018-08-30T01:04:19.369Z,100351.05
2018-08-30T01:06:48.376Z,100355.75
2018-08-30T01:09:17.270Z,100358.87
2018-08-30T01:11:46.510Z,100366.67
2018-08-30T01:14:15.744Z,100367.79
2018-08-30T01:16:45.150Z,100372.59
2018-08-30T01:19:14.285Z,100362.89
2018-08-30T01:21:43.280Z,100377.90
2018-08-30T01:24:12.626Z,100374.27
2018-08-30T01:26:41.953Z,100370.41
2018-08-30T01:29:10.929Z,100387.31
2018-08-30T01:31:40.018Z,100387.12
2018-08-30T01:34:11.620Z,100386.13
2018-08-30T01:36:41.823Z,100396.59
2018-08-30T01:39:11.219Z,100392.55
2018-08-30T01:41:41.259Z,100394.10
2018-08-30T01:44:10.399Z,100398.28
2018-08-30T01:46:39.403Z,100395.81
2018-08-30T01:49:08.389Z,100399.16
2018-08-30T01:51:37.473Z,100401.17
2018-08-30T01:54:06.861Z,100394.09
2018-08-30T01:56:35.835Z,100390.75
2018-08-30T01:59:04.898Z,100387.98
2018-08-30T02:01:33.858Z,100397.14
2018-08-30T02:04:03.202Z,100401.53
2018-08-30T02:06:32.202Z,100405.53
2018-08-30T02:09:01.157Z,100407.70
2018-08-30T02:11:30.086Z,100408.70
2018-08-30T02:13:59.115Z,100414.75
2018-08-30T02:16:28.052Z,100416.49
2018-08-30T02:18:57.032Z,100423.16
2018-08-30T02:21:26.026Z,100421.10
2018-08-30T02:23:55.066Z,100423.91
2018-08-30T02:26:24.051Z,100427.15
2018-08-30T02:28:53.063Z,100430.95
2018-08-30T02:31:22.026Z,100436.13
2018-08-30T02:33:51.050Z,100438.78
2018-08-30T02:36:19.989Z,100442.88
2018-08-30T02:38:49.007Z,100433.38
2018-08-30T02:41:17.957Z,100438.19
2018-08-30T02:43:46.986Z,100427.21
2018-08-30T02:46:15.949Z,100441.58
2018-08-30T02:48:44.894Z,100447.28
2018-08-30T02:51:13.916Z,100442.91
2018-08-30T02:53:43.117Z,100439.00
2018-08-30T02:56:12.149Z,100438.35
2018-08-30T02:58:41.131Z,100434.78
2018-08-30T03:01:10.130Z,100441.23
2018-08-30T03:03:39.449Z,100437.77
2018-08-30T03:06:08.473Z,100440.87
2018-08-30T03:08:37.462Z,100444.70
2018-08-30T03:11:06.598Z,100448.38
2018-08-30T03:13:35.622Z,100449.38
2018-08-30T03:16:04.637Z,100445.30
2018-08-30T03:18:33.618Z,100461.47
2018-08-30T03:21:02.633Z,100463.17
2018-08-30T03:23:31.558Z,100459.04
2018-08-30T03:26:00.594Z,100462.90
2018-08-30T03:28:29.486Z,100470.57
2018-08-30T03:30:58.639Z,100468.89
2018-08-30T03:33:27.608Z,100466.58
2018-08-30T03:35:56.617Z,100465.18
2018-08-30T03:38:25.619Z,100470.80
2018-08-30T03:40:54.614Z,100472.62
2018-08-30T03:43:23.514Z,100470.95
2018-08-30T03:45:52.564Z,100481.02
2018-08-30T03:48:21.558Z,100476.66
2018-08-30T03:50:50.534Z,100485.55
2018-08-30T03:53:19.549Z,100490.91
2018-08-30T03:55:48.534Z,100489.52
2018-08-30T03:58:17.563Z,100490.22
2018-08-30T04:00:46.659Z,100496.84
2018-08-30T04:03:15.609Z,100496.63
2018-08-30T04:05:44.605Z,100499.30
2018-08-30T04:08:13.640Z,100502.66
2018-08-30T04:10:42.759Z,100508.03
2018-08-30T04:13:11.759Z,100519.44
2018-08-30T04:15:40.739Z,100519.36
2018-08-30T04:18:09.737Z,100520.78
2018-08-30T04:20:38.800Z,100527.52
2018-08-30T04:23:07.733Z,100527.20
2018-08-30T04:25:36.736Z,100521.42
2018-08-30T04:28:05.902Z,100522.01
2018-08-30T04:30:34.817Z,100519.89
2018-08-30T04:33:03.777Z,100526.03
2018-08-30T04:35:32.721Z,100530.97
2018-08-30T04:38:01.770Z,100535.87
2018-08-30T04:40:30.703Z,100541.87
2018-08-30T04:42:59.707Z,100548.06
2018-08-30T04:45:28.787Z,100549.41
2018-08-30T04:47:57.755Z,100550.20
2018-08-30T04:50:26.869Z,100560.43
2018-08-30T04:52:55.882Z,100558.14
2018-08-30T04:55:24.899Z,100561.63
2018-08-30T04:57:53.885Z,100570.02
2018-08-30T05:00:23.058Z,100567.47
2018-08-30T05:02:52.135Z,100575.09
2018-08-30T05:05:21.151Z,100571.30
2018-08-30T05:07:50.315Z,100581.45
2018-08-30T05:10:19.410Z,100585.52
2018-08-30T05:12:48.477Z,100590.90
2018-08-30T05:15:17.406Z,100589.23
2018-08-30T05:17:46.453Z,100595.56
2018-08-30T05:20:15.401Z,100595.41
2018-08-30T05:22:44.496Z,100599.27
2018-08-30T05:25:13.480Z,100604.42
2018-08-30T05:27:42.522Z,100605.65
2018-08-30T05:30:11.490Z,100614.41
2018-08-30T05:32:40.578Z,100607.02
2018-08-30T05:35:09.662Z,100606.05
2018-08-30T05:37:38.789Z,100612.88
2018-08-30T05:40:07.822Z,100614.05
2018-08-30T05:42:36.957Z,100613.40
2018-08-30T05:45:05.906Z,100615.08
2018-08-30T05:47:34.994Z,100615.62
2018-08-30T05:50:03.942Z,100623.20
2018-08-30T05:52:32.922Z,100620.17
2018-08-30T05:55:01.938Z,100628.20
2018-08-30T05:57:31.024Z,100622.19
2018-08-30T06:00:01.358Z,100621.81
2018-08-30T06:02:30.721Z,100624.88
2018-08-30T06:05:00.117Z,100625.20
2018-08-30T06:07:29.148Z,100628.89
2018-08-30T06:09:58.108Z,100626.72
2018-08-30T06:12:27.231Z,100628.52
2018-08-30T06:14:56.951Z,100627.86
2018-08-30T06:17:26.230Z,100630.06
2018-08-30T06:19:55.317Z,100636.61
2018-08-30T06:22:24.344Z,100633.24
2018-08-30T06:24:53.442Z,100640.16
2018-08-30T06:27:22.477Z,100640.80
2018-08-30T06:29:51.497Z,100637.97
2018-08-30T06:32:20.593Z,100640.33
2018-08-30T06:34:49.671Z,100644.03
2018-08-30T06:37:18.749Z,100650.08
2018-08-30T06:39:47.818Z,100652.12
2018-08-30T06:42:16.793Z,100648.40
2018-08-30T06:44:45.807Z,100652.28
2018-08-30T06:47:14.932Z,100652.95
2018-08-30T06:49:43.927Z,100660.36
2018-08-30T06:52:12.971Z,100658.97
2018-08-30T06:54:41.985Z,100658.16
2018-08-30T06:57:10.961Z,100659.50
2018-08-30T06:59:39.961Z,100659.30
2018-08-30T07:02:08.968Z,100657.11
2018-08-30T07:04:37.942Z,100661.31
2018-08-30T07:07:06.902Z,100662.15
2018-08-30T07:09:36.154Z,100659.47
2018-08-30T07:12:05.200Z,100661.69
2018-08-30T07:14:34.296Z,100666.12
2018-08-30T07:17:03.330Z,100670.84
2018-08-30T07:19:32.373Z,100677.92
2018-08-30T07:22:01.350Z,100679.58
2018-08-30T07:24:30.408Z,100681.68
2018-08-30T07:26:59.338Z,100690.45
2018-08-30T07:29:28.347Z,100692.84
2018-08-30T07:31:57.428Z,100698.23
2018-08-30T07:34:26.821Z,100697.05
2018-08-30T07:36:55.784Z,100706.62
2018-08-30T07:39:24.846Z,100698.92
2018-08-30T07:41:53.860Z,100704.48
2018-08-30T07:44:23.054Z,100711.55
2018-08-30T07:46:52.145Z,100712.22
2018-08-30T07:49:21.138Z,100715.25
2018-08-30T07:51:50.215Z,100717.42
2018-08-30T07:54:19.328Z,100719.45
2018-08-30T07:56:48.365Z,100724.11
2018-08-30T07:59:17.382Z,100726.69
2018-08-30T08:01:46.397Z,100736.72
2018-08-30T08:04:15.615Z,100729.75
2018-08-30T08:06:44.726Z,100742.94
2018-08-30T08:09:13.853Z,100741.22
2018-08-30T08:11:42.963Z,100748.94
2018-08-30T08:14:12.033Z,100750.70
2018-08-30T08:16:41.124Z,100749.33
2018-08-30T08:19:10.220Z,100752.28
2018-08-30T08:21:39.260Z,100741.89
2018-08-30T08:24:08.610Z,100751.29
2018-08-30T08:26:37.622Z,100752.31
2018-08-30T08:29:06.906Z,100762.13
2018-08-30T08:31:35.890Z,100755.51
2018-08-30T08:34:04.901Z,100762.90
2018-08-30T08:36:33.806Z,100772.34
2018-08-30T08:39:03.080Z,100766.55
2018-08-30T08:41:32.354Z,100774.10
2018-08-30T08:44:01.478Z,100774.16
2018-08-30T08:46:30.860Z,100767.77
2018-08-30T08:48:59.915Z,100775.87
2018-08-30T08:51:28.853Z,100772.84
2018-08-30T08:53:57.938Z,100782.63
2018-08-30T08:56:26.861Z,100783.04
2018-08-30T08:58:56.255Z,100788.52
2018-08-30T09:01:25.180Z,100784.96
2018-08-30T09:03:54.201Z,100791.19
2018-08-30T09:06:23.156Z,100788.17
2018-08-30T09:08:52.203Z,100788.46
2018-08-30T09:11:21.134Z,100794.98
2018-08-30T09:13:50.158Z,100789.30
2018-08-30T09:16:19.104Z,100789.02
2018-08-30T09:18:48.683Z,100796.05
2018-08-30T09:21:17.677Z,100795.20
2018-08-30T09:23:46.648Z,100795.72
2018-08-30T09:26:15.602Z,100794.46
2018-08-30T09:28:44.575Z,100803.49
2018-08-30T09:31:13.585Z,100796.19
2018-08-30T09:33:42.715Z,100799.05
2018-08-30T09:36:11.649Z,100803.28
2018-08-30T09:38:40.655Z,100803.13
2018-08-30T09:41:09.595Z,100800.67
2018-08-30T09:43:38.594Z,100793.95
2018-08-30T09:46:07.569Z,100789.89
2018-08-30T09:48:36.677Z,100787.17
2018-08-30T09:51:05.758Z,100792.75
2018-08-30T09:53:34.873Z,100788.00
2018-08-30T09:56:04.024Z,100786.96
2018-08-30T09:58:33.038Z,100795.89
2018-08-30T10:01:07.032Z,100793.30
2018-08-30T10:03:36.078Z,100792.94
2018-08-30T10:06:05.221Z,100791.03
2018-08-30T10:08:34.625Z,100793.88
2018-08-30T10:11:03.899Z,100799.77
2018-08-30T10:13:33.224Z,100788.27
2018-08-30T10:16:02.249Z,100784.53
2018-08-30T10:18:31.226Z,100780.44
2018-08-30T10:21:00.248Z,100785.54
2018-08-30T10:23:29.347Z,100779.98
2018-08-30T10:25:58.308Z,100783.94
2018-08-30T10:28:27.306Z,100790.00
2018-08-30T10:30:56.308Z,100786.51
2018-08-30T10:33:25.530Z,100791.47
2018-08-30T10:35:54.784Z,100785.09
2018-08-30T10:38:24.084Z,100792.25
2018-08-30T10:40:53.110Z,100784.47
2018-08-30T10:43:22.015Z,100790.62
2018-08-30T10:45:50.998Z,100785.42
2018-08-30T10:48:19.941Z,100797.54
2018-08-30T10:50:48.899Z,100796.36
2018-08-30T10:53:17.808Z,100803.94
2018-08-30T10:55:46.791Z,100801.88
2018-08-30T10:58:15.800Z,100795.39
2018-08-30T11:00:44.819Z,100794.05
2018-08-30T11:03:14.081Z,100796.28
2018-08-30T11:05:43.261Z,100795.75
2018-08-30T11:08:12.242Z,100794.92
2018-08-30T11:10:41.331Z,100799.52
2018-08-30T11:13:10.469Z,100800.98
2018-08-30T11:15:39.381Z,100796.91
2018-08-30T11:18:08.750Z,100796.20
2018-08-30T11:20:37.792Z,100790.86
2018-08-30T11:23:06.786Z,100788.02
2018-08-30T11:25:35.833Z,100788.23
2018-08-30T11:28:04.847Z,100787.50
2018-08-30T11:30:33.893Z,100789.23
2018-08-30T11:33:02.921Z,100788.56
2018-08-30T11:35:31.927Z,100791.43
2018-08-30T11:38:00.996Z,100784.22
2018-08-30T11:40:30.034Z,100788.18
2018-08-30T11:42:59.158Z,100785.56
2018-08-30T11:45:28.210Z,100787.03
2018-08-30T11:47:57.228Z,100783.16
2018-08-30T11:50:26.213Z,100786.88
2018-08-30T11:52:55.215Z,100799.11
2018-08-30T11:55:24.278Z,100795.77
2018-08-30T11:57:53.354Z,100805.43
2018-08-30T12:00:22.426Z,100801.88
2018-08-30T12:02:51.421Z,100802.34
2018-08-30T12:05:20.435Z,100802.66
2018-08-30T12:07:50.287Z,100797.52
2018-08-30T12:10:19.443Z,100802.65
2018-08-30T12:12:48.406Z,100797.58
2018-08-30T12:15:17.438Z,100805.75
2018-08-30T12:17:46.439Z,100806.38
2018-08-30T12:20:15.451Z,100807.02
2018-08-30T12:22:44.467Z,100802.54
2018-08-30T12:25:13.394Z,100801.77
2018-08-30T12:27:42.422Z,100807.12
2018-08-30T12:30:11.367Z,100802.09
2018-08-30T12:32:40.421Z,100802.51
2018-08-30T12:35:09.621Z,100803.70
2018-08-30T12:37:38.664Z,100814.05
2018-08-30T12:40:07.726Z,100812.90
2018-08-30T12:42:36.627Z,100814.55
2018-08-30T12:45:05.698Z,100808.45
2018-08-30T12:47:35.225Z,100813.92
2018-08-30T12:50:04.307Z,100815.57
2018-08-30T12:52:33.401Z,100817.17
2018-08-30T12:55:02.457Z,100820.19
2018-08-30T12:57:31.489Z,100815.05
2018-08-30T13:00:00.485Z,100817.05
2018-08-30T13:02:29.548Z,100814.13
2018-08-30T13:04:58.599Z,100817.45
2018-08-30T13:07:27.695Z,100818.70
2018-08-30T13:09:56.776Z,100818.92
2018-08-30T13:12:25.848Z,100816.64
2018-08-30T13:14:54.662Z,100808.38
2018-08-30T13:17:23.625Z,100813.79
2018-08-30T13:19:52.676Z,100815.63
2018-08-30T13:22:21.858Z,100805.09
2018-08-30T13:24:50.793Z,100806.48
2018-08-30T13:27:19.854Z,100814.64
2018-08-30T13:29:48.823Z,100804.91
2018-08-30T13:32:17.938Z,100803.89
2018-08-30T13:34:47.001Z,100805.64
2018-08-30T13:37:15.869Z,100802.56
2018-08-30T13:39:45.000Z,100803.30
2018-08-30T13:42:14.094Z,100803.15
2018-08-30T13:44:43.279Z,100806.67
2018-08-30T13:47:12.183Z,100803.70
2018-08-30T13:49:41.038Z,100798.80
2018-08-30T13:52:10.269Z,100802.30
2018-08-30T13:54:39.086Z,100792.78
2018-08-30T13:57:08.568Z,100798.87
2018-08-30T13:59:37.649Z,100793.18
2018-08-30T14:02:06.501Z,100788.47
2018-08-30T14:04:35.470Z,100788.74
2018-08-30T14:07:04.660Z,100792.27
2018-08-30T14:09:33.629Z,100791.27
2018-08-30T14:12:02.957Z,100793.83
2018-08-30T14:14:31.916Z,100796.77
2018-08-30T14:17:00.666Z,100792.00
2018-08-30T14:19:29.582Z,100786.22
2018-08-30T14:21:58.656Z,100789.22
2018-08-30T14:24:27.588Z,100795.69
2018-08-30T14:26:56.824Z,100799.49
2018-08-30T14:29:25.725Z,100787.77
2018-08-30T14:31:54.817Z,100792.95
2018-08-30T14:34:23.892Z,100790.92
2018-08-30T14:36:52.902Z,100798.50
2018-08-30T14:39:21.909Z,100793.39
2018-08-30T14:41:51.362Z,100788.53
2018-08-30T14:44:20.634Z,100784.48
2018-08-30T14:46:50.023Z,100785.20
2018-08-30T14:49:19.301Z,100789.23
2018-08-30T14:51:48.909Z,100786.88
2018-08-30T14:54:18.365Z,100785.65
2018-08-30T14:56:47.827Z,100787.36
2018-08-30T14:59:17.366Z,100783.84
2018-08-30T15:01:46.622Z,100782.45
2018-08-30T15:04:15.905Z,100784.81
2018-08-30T15:06:45.304Z,100784.70
2018-08-30T15:09:14.689Z,100785.54
2018-08-30T15:11:44.357Z,100788.58
2018-08-30T15:14:13.729Z,100788.58
2018-08-30T15:16:43.215Z,100778.11
2018-08-30T15:19:12.968Z,100785.31
2018-08-30T15:21:42.333Z,100784.23
2018-08-30T15:24:11.789Z,100778.22
2018-08-30T15:26:41.105Z,100784.38
2018-08-30T15:29:10.420Z,100792.84
2018-08-30T15:31:39.887Z,100792.67
2018-08-30T15:34:09.140Z,100799.06
2018-08-30T15:36:38.405Z,100791.05
2018-08-30T15:39:09.090Z,100795.63
2018-08-30T15:41:38.182Z,100795.77
2018-08-30T15:44:07.426Z,100805.20
2018-08-30T15:46:36.501Z,100795.12
2018-08-30T15:49:05.578Z,100802.63
2018-08-30T15:51:34.625Z,100797.69
2018-08-30T15:54:03.638Z,100797.98
2018-08-30T15:56:32.572Z,100801.41
2018-08-30T15:59:01.667Z,100809.89
2018-08-30T16:01:30.729Z,100806.38
2018-08-30T16:03:59.892Z,100806.20
2018-08-30T16:06:28.927Z,100807.50
2018-08-30T16:08:57.922Z,100805.51
2018-08-30T16:11:26.871Z,100806.32
2018-08-30T16:13:56.069Z,100802.03
2018-08-30T16:16:25.019Z,100802.27
2018-08-30T16:18:54.118Z,100797.73
2018-08-30T16:21:23.109Z,100790.75
2018-08-30T16:23:52.127Z,100793.96
2018-08-30T16:26:21.131Z,100799.95
2018-08-30T16:28:50.149Z,100789.86
2018-08-30T16:31:19.158Z,100790.38
2018-08-30T16:33:48.142Z,100794.86
2018-08-30T16:36:17.146Z,100800.31
2018-08-30T16:38:46.165Z,100797.95
2018-08-30T16:41:15.286Z,100799.06
2018-08-30T16:43:44.362Z,100799.27
2018-08-30T16:46:13.331Z,100798.95
2018-08-30T16:48:42.508Z,100805.19
2018-08-30T16:51:11.380Z,100806.22
2018-08-30T16:53:40.463Z,100804.75
2018-08-30T16:56:09.417Z,100801.61
2018-08-30T16:58:38.495Z,100804.33
2018-08-30T17:01:07.475Z,100790.34
2018-08-30T17:03:36.915Z,100793.52
2018-08-30T17:06:06.251Z,100787.30
2018-08-30T17:08:35.282Z,100791.53
2018-08-30T17:11:04.258Z,100795.72
2018-08-30T17:13:33.337Z,100788.61
2018-08-30T17:16:02.406Z,100787.48
2018-08-30T17:18:31.441Z,100795.77
2018-08-30T17:21:00.460Z,100795.01
2018-08-30T17:23:29.438Z,100795.41
2018-08-30T17:25:58.464Z,100801.39
2018-08-30T17:28:27.610Z,100794.89
2018-08-30T17:30:56.684Z,100785.31
2018-08-30T17:33:25.717Z,100794.81
2018-08-30T17:35:54.849Z,100788.05
2018-08-30T17:38:23.798Z,100792.70
2018-08-30T17:40:52.847Z,100788.94
2018-08-30T17:43:21.830Z,100794.44
2018-08-30T17:45:51.035Z,100798.98
2018-08-30T17:48:20.049Z,100794.09
2018-08-30T17:50:49.015Z,100801.37
2018-08-30T17:53:18.019Z,100808.49
2018-08-30T17:55:47.334Z,100811.76
2018-08-30T17:58:16.297Z,100808.48
2018-08-30T18:00:45.382Z,100819.27
2018-08-30T18:03:14.411Z,100810.93
2018-08-30T18:05:43.506Z,100820.22
2018-08-30T18:08:12.526Z,100825.12
2018-08-30T18:10:41.637Z,100819.47
2018-08-30T18:13:10.682Z,100823.52
2018-08-30T18:15:39.766Z,100825.66
2018-08-30T18:18:08.742Z,100820.27
2018-08-30T18:20:37.835Z,100825.00
2018-08-30T18:23:07.189Z,100825.94
2018-08-30T18:25:36.292Z,100826.36
2018-08-30T18:28:05.491Z,100835.45
2018-08-30T18:30:34.625Z,100829.32
2018-08-30T18:33:03.813Z,100831.78
2018-08-30T18:35:32.829Z,100837.41
2018-08-30T18:38:01.834Z,100840.87
2018-08-30T18:40:31.030Z,100835.78
2018-08-30T18:43:00.094Z,100841.50
2018-08-30T18:45:29.098Z,100838.78
2018-08-30T18:47:58.130Z,100850.97
2018-08-30T18:50:27.192Z,100849.41
2018-08-30T18:52:56.322Z,100861.77
2018-08-30T18:55:25.386Z,100862.02
2018-08-30T18:57:54.373Z,100860.21
2018-08-30T19:00:23.445Z,100870.95
2018-08-30T19:02:52.646Z,100868.84
2018-08-30T19:05:21.742Z,100866.00
2018-08-30T19:07:50.982Z,100867.45
2018-08-30T19:10:20.178Z,100868.94
2018-08-30T19:12:49.890Z,100870.60
2018-08-30T19:15:24.618Z,100874.65
2018-08-30T19:18:00.342Z,100879.05
2018-08-30T19:20:30.060Z,100873.06
2018-08-30T19:22:59.193Z,100873.42
2018-08-30T19:25:30.192Z,100872.20
2018-08-30T19:27:59.346Z,100875.77
2018-08-30T19:30:30.263Z,100878.47
2018-08-30T19:33:00.193Z,100881.08
2018-08-30T19:35:34.479Z,100881.88
2018-08-30T19:38:04.103Z,100879.86
2018-08-30T19:40:38.820Z,100883.75
2018-08-30T19:43:08.182Z,100886.52
2018-08-30T19:45:37.520Z,100888.50
2018-08-30T19:48:06.807Z,100886.11
2018-08-30T19:50:36.125Z,100893.81
2018-08-30T19:53:05.498Z,100890.19
2018-08-30T19:55:34.708Z,100893.64
2018-08-30T19:58:04.542Z,100887.77
2018-08-30T20:00:34.193Z,100896.09
2018-08-30T20:03:03.459Z,100895.98
2018-08-30T20:05:32.766Z,100894.32
2018-08-30T20:08:02.264Z,100895.64
2018-08-30T20:10:31.882Z,100884.55
2018-08-30T20:13:01.361Z,100894.66
2018-08-30T20:15:30.630Z,100888.15
2018-08-30T20:17:59.968Z,100893.23
2018-08-30T20:20:29.187Z,100889.60
2018-08-30T20:22:58.454Z,100893.47
2018-08-30T20:25:27.864Z,100886.58
2018-08-30T20:27:57.193Z,100889.27
2018-08-30T20:30:26.563Z,100889.92
2018-08-30T20:32:56.080Z,100884.55
2018-08-30T20:35:25.470Z,100891.59
2018-08-30T20:37:54.854Z,100890.59
2018-08-30T20:40:24.093Z,100891.55
2018-08-30T20:42:53.469Z,100888.73
2018-08-30T20:45:22.867Z,100897.52
2018-08-30T20:47:52.275Z,100894.50
2018-08-30T20:50:21.935Z,100892.56
2018-08-30T20:52:51.299Z,100899.77
2018-08-30T20:55:20.765Z,100895.98
2018-08-30T20:57:50.157Z,100885.23
2018-08-30T21:00:19.497Z,100893.37
2018-08-30T21:02:49.315Z,100907.25
2018-08-30T21:05:19.002Z,100904.44
2018-08-30T21:07:48.470Z,100911.55
2018-08-30T21:10:17.740Z,100905.92
2018-08-30T21:12:47.158Z,100904.89
2018-08-30T21:15:17.058Z,100904.42
2018-08-30T21:17:46.372Z,100905.31
2018-08-30T21:20:17.054Z,100903.32
2018-08-30T21:22:47.316Z,100905.48
2018-08-30T21:25:17.832Z,100898.11
2018-08-30T21:27:48.139Z,100900.10
2018-08-30T21:30:18.201Z,100905.16
2018-08-30T21:32:48.381Z,100900.89
2018-08-30T21:35:18.793Z,100897.81
2018-08-30T21:37:49.169Z,100909.88
2018-08-30T21:40:19.295Z,100899.44
2018-08-30T21:42:49.762Z,100905.78
2018-08-30T21:45:20.270Z,100906.23
2018-08-30T21:47:50.795Z,100904.16
2018-08-30T21:50:20.068Z,100910.88
2018-08-30T21:52:49.513Z,100906.40
2018-08-30T21:55:18.961Z,100901.47
2018-08-30T21:57:48.410Z,100910.73
2018-08-30T22:00:17.944Z,100914.76
2018-08-30T22:02:47.379Z,100909.31
2018-08-30T22:05:17.371Z,100912.77
2018-08-30T22:07:48.312Z,100913.12
2018-08-30T22:10:18.642Z,100913.95
2018-08-30T22:12:49.051Z,100916.34
2018-08-30T22:15:19.412Z,100913.95
2018-08-30T22:17:49.393Z,100914.76
2018-08-30T22:20:18.804Z,100904.83
2018-08-30T22:22:49.238Z,100905.70
2018-08-30T22:25:19.752Z,100905.38
2018-08-30T22:27:50.937Z,100909.19
2018-08-30T22:30:21.618Z,100895.83
2018-08-30T22:32:51.765Z,100900.52
2018-08-30T22:35:21.773Z,100897.61
2018-08-30T22:37:51.869Z,100894.76
2018-08-30T22:40:21.142Z,100903.94
2018-08-30T22:42:50.480Z,100902.34
2018-08-30T22:45:20.133Z,100899.34
2018-08-30T22:47:49.619Z,100904.47
2018-08-30T22:50:18.910Z,100896.41
2018-08-30T22:52:48.234Z,100899.72
2018-08-30T22:55:17.651Z,100898.53
2018-08-30T22:57:47.056Z,100893.37
2018-08-30T23:00:16.234Z,100895.72
2018-08-30T23:02:45.823Z,100894.69
2018-08-30T23:05:15.025Z,100888.63
2018-08-30T23:07:44.455Z,100892.58
2018-08-30T23:10:13.905Z,100883.84
2018-08-30T23:12:43.166Z,100889.67
2018-08-30T23:15:12.770Z,100888.48
2018-08-30T23:17:42.318Z,100891.57
2018-08-30T23:20:11.969Z,100884.67
2018-08-30T23:22:41.310Z,100878.90
2018-08-30T23:25:10.609Z,100879.53
2018-08-30T23:27:40.095Z,100869.53
2018-08-30T23:30:09.595Z,100876.27
2018-08-30T23:32:39.107Z,100868.28
2018-08-30T23:35:08.288Z,100869.13
2018-08-30T23:37:37.910Z,100862.02
2018-08-30T23:40:09.045Z,100858.52
2018-08-30T23:42:38.382Z,100860.81
2018-08-30T23:45:07.969Z,100861.06
2018-08-30T23:47:37.295Z,100870.39
2018-08-30T23:50:07.000Z,100864.56
2018-08-30T23:52:36.353Z,100869.39
2018-08-30T23:55:05.731Z,100873.72
2018-08-30T23:57:35.199Z,100870.87
